createdAt,value
2019-02-08T00:13:06.461Z,0.00
2019-02-08T00:13:56.638Z,0.00
2019-02-08T00:14:56.613Z,0.00
2019-02-08T00:15:56.592Z,0.00
2019-02-08T00:16:56.565Z,0.00
2019-02-08T00:17:56.566Z,0.00
2019-02-08T00:18:56.537Z,0.00
2019-02-08T00:19:56.515Z,0.00
2019-02-08T00:20:56.500Z,0.00
2019-02-08T00:21:56.509Z,0.00
2019-02-08T00:22:56.466Z,0.00
2019-02-08T00:23:56.443Z,0.00
2019-02-08T00:24:56.431Z,0.00
2019-02-08T00:25:56.418Z,0.00
2019-02-08T00:26:56.419Z,0.00
2019-02-08T00:27:56.380Z,0.00
2019-02-08T00:28:56.346Z,0.00
2019-02-08T00:29:56.327Z,0.00
2019-02-08T00:30:56.305Z,0.00
2019-02-08T00:31:56.334Z,0.00
2019-02-08T00:32:56.273Z,0.00
2019-02-08T00:33:56.256Z,0.00
2019-02-08T00:34:56.242Z,0.00
2019-02-08T00:35:56.220Z,0.00
2019-02-08T00:36:56.200Z,0.00
2019-02-08T00:37:56.181Z,0.00
2019-02-08T00:38:56.166Z,0.00
2019-02-08T00:39:56.136Z,0.00
2019-02-08T00:40:56.121Z,0.00
2019-02-08T00:41:56.104Z,0.00
2019-02-08T00:42:56.114Z,0.00
2019-02-08T00:43:56.069Z,0.00
2019-02-08T00:44:56.046Z,0.00
2019-02-08T00:45:56.046Z,0.00
2019-02-08T00:46:56.006Z,0.00
2019-02-08T00:47:56.006Z,0.00
2019-02-08T00:48:55.969Z,0.00
2019-02-08T00:49:55.953Z,0.00
2019-02-08T00:50:55.950Z,0.00
2019-02-08T00:51:55.925Z,0.00
2019-02-08T00:52:55.939Z,0.00
2019-02-08T00:53:55.881Z,0.00
2019-02-08T00:54:55.899Z,0.00
2019-02-08T00:55:55.840Z,0.00
2019-02-08T00:56:55.819Z,0.00
2019-02-08T00:57:55.801Z,0.00
2019-02-08T00:58:55.793Z,0.00
2019-02-08T00:59:55.810Z,0.00
2019-02-08T01:00:55.782Z,0.00
2019-02-08T01:37:04.022Z,0.00
2019-02-08T01:38:04.000Z,0.00
2019-02-08T01:39:03.980Z,0.00
2019-02-08T01:40:03.946Z,0.00
2019-02-08T01:41:03.932Z,0.00
2019-02-08T01:42:03.916Z,0.00
2019-02-08T01:43:03.909Z,0.00
2019-02-08T01:44:03.877Z,0.00
2019-02-08T01:45:03.859Z,0.00
2019-02-08T01:46:03.837Z,0.00
2019-02-08T01:47:03.863Z,0.00
2019-02-08T01:48:03.810Z,0.00
2019-02-08T01:49:03.793Z,0.00
2019-02-08T01:50:03.777Z,0.00
2019-02-08T01:51:03.764Z,0.00
2019-02-08T01:52:03.737Z,0.00
2019-02-08T01:53:03.715Z,0.00
2019-02-08T01:54:03.686Z,0.00
2019-02-08T01:55:03.730Z,0.00
2019-02-08T01:56:03.662Z,0.00
2019-02-08T01:57:03.633Z,0.00
2019-02-08T01:58:03.627Z,0.00
2019-02-08T01:59:03.610Z,0.00
2019-02-08T02:00:03.587Z,0.00
2019-02-08T02:01:03.608Z,0.00
2019-02-08T02:02:03.552Z,0.00
2019-02-08T02:03:03.530Z,0.00
2019-02-08T02:04:03.523Z,0.00
2019-02-08T02:05:03.489Z,0.00
2019-02-08T02:06:03.493Z,0.00
2019-02-08T02:07:03.457Z,0.00
2019-02-08T02:08:03.443Z,0.00
2019-02-08T02:09:03.418Z,0.00
2019-02-08T02:10:03.403Z,0.00
2019-02-08T02:11:03.409Z,0.00
2019-02-08T02:12:03.357Z,0.00
2019-02-08T02:13:03.331Z,0.00
2019-02-08T02:14:03.324Z,0.00
2019-02-08T02:15:03.454Z,0.00
2019-02-08T02:16:04.175Z,0.00
2019-02-08T02:17:03.274Z,0.00
2019-02-08T02:18:03.259Z,0.00
2019-02-08T02:19:03.225Z,0.00
2019-02-08T02:20:03.218Z,0.00
2019-02-08T02:21:03.228Z,0.00
2019-02-08T02:22:03.167Z,0.00
2019-02-08T02:23:03.184Z,0.00
2019-02-08T02:24:03.150Z,0.00
2019-02-08T02:25:03.109Z,0.00
2019-02-08T02:26:03.093Z,0.00
2019-02-08T02:27:03.078Z,0.00
2019-02-08T02:28:03.065Z,0.00
2019-02-08T02:29:03.036Z,0.00
2019-02-08T02:30:03.021Z,0.00
2019-02-08T02:31:03.004Z,0.00
2019-02-08T02:32:03.014Z,0.00
2019-02-08T02:33:02.979Z,0.00
2019-02-08T02:34:02.986Z,0.00
2019-02-08T02:35:02.934Z,0.00
2019-02-08T02:36:02.934Z,0.00
2019-02-08T02:37:02.896Z,0.00
2019-02-08T02:38:02.905Z,0.00
2019-02-08T02:39:02.866Z,0.00
2019-02-08T02:40:02.841Z,0.00
2019-02-08T02:41:02.812Z,0.00
2019-02-08T02:42:02.808Z,0.00
2019-02-08T02:43:02.787Z,0.00
2019-02-08T02:44:02.759Z,0.00
2019-02-08T02:45:02.736Z,0.00
2019-02-08T02:46:02.753Z,0.00
2019-02-08T02:47:02.717Z,0.00
2019-02-08T02:48:02.695Z,0.00
2019-02-08T02:49:02.678Z,0.00
2019-02-08T02:50:02.646Z,0.00
2019-02-08T02:51:02.638Z,0.00
2019-02-08T02:52:02.640Z,0.00
2019-02-08T02:53:02.595Z,0.00
2019-02-08T02:54:04.819Z,0.00
2019-02-08T02:55:02.546Z,0.00
2019-02-08T02:56:02.576Z,0.00
2019-02-08T02:57:02.543Z,0.00
2019-02-08T02:58:02.496Z,0.00
2019-02-08T02:59:02.485Z,0.00
2019-02-08T03:00:02.456Z,0.00
2019-02-08T03:01:02.438Z,0.00
2019-02-08T03:02:02.436Z,0.00
2019-02-08T03:03:02.570Z,0.00
2019-02-08T03:04:02.395Z,0.00
2019-02-08T03:05:02.383Z,0.00
2019-02-08T03:06:02.350Z,0.00
2019-02-08T03:07:02.334Z,0.00
2019-02-08T03:08:02.305Z,0.00
2019-02-08T03:09:02.327Z,0.00
2019-02-08T03:10:02.269Z,0.00
2019-02-08T03:11:02.253Z,0.00
2019-02-08T03:12:02.247Z,0.00
2019-02-08T03:13:02.351Z,0.00
2019-02-08T03:14:02.192Z,0.00
2019-02-08T03:15:02.186Z,0.00
2019-02-08T03:16:02.164Z,0.00
2019-02-08T03:17:02.150Z,0.00
2019-02-08T03:18:02.129Z,0.00
2019-02-08T03:19:02.133Z,0.00
2019-02-08T03:20:02.093Z,0.00
2019-02-08T03:21:02.081Z,0.00
2019-02-08T03:22:02.047Z,0.00
2019-02-08T03:23:02.039Z,0.00
2019-02-08T03:24:02.039Z,0.00
2019-02-08T03:25:01.989Z,0.00
2019-02-08T03:26:01.972Z,0.00
2019-02-08T03:27:01.953Z,0.00
2019-02-08T03:28:01.940Z,0.00
2019-02-08T03:29:02.057Z,0.00
2019-02-08T03:30:01.900Z,0.00
2019-02-08T03:31:01.881Z,0.00
2019-02-08T03:32:01.855Z,0.00
2019-02-08T03:33:01.836Z,0.00
2019-02-08T03:34:01.830Z,0.00
2019-02-08T03:35:01.824Z,0.00
2019-02-08T03:36:01.790Z,0.00
2019-02-08T03:37:01.760Z,0.00
2019-02-08T03:38:01.758Z,0.00
2019-02-08T03:39:01.722Z,0.00
2019-02-08T03:40:01.866Z,0.00
2019-02-08T03:41:01.686Z,0.00
2019-02-08T03:42:01.710Z,0.00
2019-02-08T03:43:01.663Z,0.00
2019-02-08T03:44:01.642Z,0.00
2019-02-08T03:45:01.637Z,0.00
2019-02-08T03:46:01.629Z,0.00
2019-02-08T03:47:01.577Z,0.00
2019-02-08T03:48:01.556Z,0.00
2019-02-08T03:49:01.538Z,0.00
2019-02-08T03:50:01.515Z,0.00
2019-02-08T03:51:01.546Z,0.00
2019-02-08T03:52:01.488Z,0.00
2019-02-08T03:53:01.473Z,0.00
2019-02-08T03:54:01.453Z,0.00
2019-02-08T03:55:01.470Z,0.00
2019-02-08T03:56:01.418Z,0.00
2019-02-08T03:57:01.385Z,0.00
2019-02-08T03:58:01.369Z,0.00
2019-02-08T03:59:01.592Z,0.00
2019-02-08T04:00:01.339Z,0.00
2019-02-08T04:01:01.354Z,0.00
2019-02-08T04:02:01.299Z,0.00
2019-02-08T04:03:01.301Z,0.00
2019-02-08T04:04:01.254Z,0.00
2019-02-08T04:05:01.231Z,0.00
2019-02-08T04:06:01.231Z,0.00
2019-02-08T04:07:01.197Z,0.00
2019-02-08T04:08:01.227Z,0.00
2019-02-08T04:09:01.169Z,0.00
2019-02-08T04:10:01.139Z,0.00
2019-02-08T04:11:01.126Z,0.00
2019-02-08T04:12:01.103Z,0.00
2019-02-08T04:13:01.113Z,0.00
2019-02-08T04:14:01.104Z,0.00
2019-02-08T04:15:01.058Z,0.00
2019-02-08T04:16:01.032Z,0.00
2019-02-08T04:17:01.017Z,0.00
2019-02-08T04:18:01.007Z,0.00
2019-02-08T04:19:01.039Z,0.00
2019-02-08T04:20:00.955Z,0.00
2019-02-08T04:21:00.930Z,0.00
2019-02-08T04:22:00.922Z,0.00
2019-02-08T04:23:00.902Z,0.00
2019-02-08T04:24:00.882Z,0.00
2019-02-08T04:25:00.863Z,0.00
2019-02-08T04:26:00.855Z,0.00
2019-02-08T04:27:00.818Z,0.00
2019-02-08T04:28:00.812Z,0.00
2019-02-08T04:29:00.787Z,0.00
2019-02-08T04:30:00.918Z,0.00
2019-02-08T04:31:00.748Z,0.00
2019-02-08T04:32:00.735Z,0.00
2019-02-08T04:33:00.722Z,0.00
2019-02-08T04:34:00.688Z,0.00
2019-02-08T04:35:00.677Z,0.00
2019-02-08T04:36:00.681Z,0.00
2019-02-08T04:37:00.650Z,0.00
2019-02-08T04:38:00.626Z,0.00
2019-02-08T04:39:00.609Z,0.00
2019-02-08T04:40:00.594Z,0.00
2019-02-08T04:41:00.606Z,0.00
2019-02-08T04:42:00.535Z,0.00
2019-02-08T04:43:00.536Z,0.00
2019-02-08T04:44:00.540Z,0.00
2019-02-08T04:45:00.498Z,0.00
2019-02-08T04:46:00.478Z,0.00
2019-02-08T04:47:00.467Z,0.00
2019-02-08T04:48:00.433Z,0.00
2019-02-08T04:49:00.426Z,0.00
2019-02-08T04:50:00.410Z,0.00
2019-02-08T04:51:00.385Z,0.00
2019-02-08T04:52:00.357Z,0.00
2019-02-08T04:53:00.336Z,0.00
2019-02-08T04:54:00.320Z,0.00
2019-02-08T04:55:00.344Z,0.00
2019-02-08T04:56:00.285Z,0.00
2019-02-08T04:57:00.404Z,0.00
2019-02-08T04:58:00.245Z,0.00
2019-02-08T04:59:00.224Z,0.00
2019-02-08T05:00:00.256Z,0.00
2019-02-08T05:01:00.184Z,0.00
2019-02-08T05:02:00.163Z,0.00
2019-02-08T05:03:00.176Z,0.00
2019-02-08T05:04:00.132Z,0.00
2019-02-08T05:05:00.181Z,0.00
2019-02-08T05:06:00.100Z,0.00
2019-02-08T05:07:00.087Z,0.00
2019-02-08T05:08:00.052Z,0.00
2019-02-08T05:09:00.070Z,0.00
2019-02-08T05:10:00.036Z,0.00
2019-02-08T05:10:59.994Z,0.00
2019-02-08T05:11:59.991Z,0.00
2019-02-08T05:12:59.989Z,0.00
2019-02-08T05:14:00.083Z,0.00
2019-02-08T05:14:59.936Z,0.00
2019-02-08T05:15:59.905Z,0.00
2019-02-08T05:16:59.885Z,0.00
2019-02-08T05:17:59.874Z,0.00
2019-02-08T05:18:59.856Z,0.00
2019-02-08T05:19:59.834Z,0.00
2019-02-08T05:20:59.820Z,0.00
2019-02-08T05:21:59.799Z,0.00
2019-02-08T05:22:59.775Z,0.00
2019-02-08T05:23:59.770Z,0.00
2019-02-08T05:24:59.777Z,0.00
2019-02-08T05:25:59.716Z,0.00
2019-02-08T05:26:59.703Z,0.00
2019-02-08T05:27:59.682Z,0.00
2019-02-08T05:28:59.841Z,0.00
2019-02-08T05:29:59.654Z,0.00
2019-02-08T05:30:59.638Z,0.00
2019-02-08T05:31:59.606Z,0.00
2019-02-08T05:32:59.601Z,0.00
2019-02-08T05:33:59.577Z,0.00
2019-02-08T05:34:59.577Z,0.00
2019-02-08T05:35:59.531Z,0.00
2019-02-08T05:36:59.556Z,0.00
2019-02-08T05:37:59.530Z,0.00
2019-02-08T05:38:59.481Z,0.00
2019-02-08T05:39:59.546Z,0.00
2019-02-08T05:40:59.444Z,0.00
2019-02-08T05:41:59.422Z,0.00
2019-02-08T05:42:59.410Z,0.00
2019-02-08T05:43:59.388Z,0.00
2019-02-08T05:44:59.371Z,0.00
2019-02-08T05:45:59.386Z,0.00
2019-02-08T05:46:59.341Z,0.00
2019-02-08T05:47:59.306Z,0.00
2019-02-08T05:48:59.289Z,0.00
2019-02-08T05:49:59.283Z,0.00
2019-02-08T05:50:59.418Z,0.00
2019-02-08T05:51:59.245Z,0.00
2019-02-08T05:52:59.222Z,0.00
2019-02-08T05:53:59.197Z,0.00
2019-02-08T05:54:59.188Z,0.00
2019-02-08T05:55:59.172Z,0.00
2019-02-08T05:56:59.156Z,0.00
2019-02-08T05:57:59.133Z,0.00
2019-02-08T05:58:59.102Z,0.00
2019-02-08T05:59:59.092Z,0.00
2019-02-08T06:00:59.098Z,0.00
2019-02-08T06:01:59.046Z,0.00
2019-02-08T06:02:59.134Z,0.00
2019-02-08T06:03:59.011Z,0.00
2019-02-08T06:04:58.991Z,0.00
2019-02-08T06:05:58.981Z,0.00
2019-02-08T06:06:58.961Z,0.00
2019-02-08T06:07:58.948Z,0.00
2019-02-08T06:08:58.940Z,0.00
2019-02-08T06:09:58.913Z,0.00
2019-02-08T06:10:58.896Z,0.00
2019-02-08T06:11:58.858Z,0.00
2019-02-08T06:12:58.838Z,0.00
2019-02-08T06:13:58.840Z,0.00
2019-02-08T06:14:58.805Z,0.00
2019-02-08T06:15:58.798Z,0.00
2019-02-08T06:16:58.774Z,0.00
2019-02-08T06:17:58.746Z,0.00
2019-02-08T06:18:58.729Z,0.00
2019-02-08T06:19:58.708Z,0.00
2019-02-08T06:20:58.713Z,0.00
2019-02-08T06:21:58.680Z,0.00
2019-02-08T06:22:58.649Z,0.00
2019-02-08T06:23:58.694Z,0.00
2019-02-08T06:25:03.942Z,0.00
2019-02-08T06:25:58.595Z,0.00
2019-02-08T06:26:58.579Z,0.00
2019-02-08T06:27:58.557Z,0.00
2019-02-08T06:28:58.700Z,4.00
2019-02-08T06:29:58.552Z,4.00
2019-02-08T06:30:58.510Z,4.00
2019-02-08T06:31:58.500Z,0.00
2019-02-08T06:32:58.462Z,0.00
2019-02-08T06:33:58.462Z,4.00
2019-02-08T06:34:58.427Z,4.00
2019-02-08T06:35:58.403Z,4.00
2019-02-08T06:36:58.416Z,8.00
2019-02-08T06:37:58.383Z,4.00
2019-02-08T06:38:58.355Z,8.00
2019-02-08T06:39:58.334Z,8.00
2019-02-08T06:40:58.327Z,12.00
2019-02-08T06:41:58.335Z,12.00
2019-02-08T06:42:58.277Z,8.00
2019-02-08T06:43:58.270Z,16.00
2019-02-08T06:44:58.290Z,12.00
2019-02-08T06:45:58.215Z,16.00
2019-02-08T06:46:58.196Z,20.00
2019-02-08T06:47:58.195Z,16.00
2019-02-08T06:48:58.157Z,20.00
2019-02-08T06:49:58.154Z,24.00
2019-02-08T06:50:58.159Z,32.00
2019-02-08T06:51:58.118Z,32.00
2019-02-08T06:52:58.097Z,36.00
2019-02-08T06:53:58.066Z,44.00
2019-02-08T06:54:58.054Z,64.00
2019-02-08T06:55:58.072Z,56.00
2019-02-08T06:56:58.011Z,56.00
2019-02-08T06:57:57.991Z,60.00
2019-02-08T06:58:57.989Z,68.00
2019-02-08T06:59:57.953Z,60.00
2019-02-08T07:00:57.967Z,76.00
2019-02-08T07:01:57.929Z,72.00
2019-02-08T07:02:57.934Z,80.00
2019-02-08T07:03:57.876Z,64.00
2019-02-08T07:04:57.857Z,72.00
2019-02-08T07:05:57.854Z,84.00
2019-02-08T07:06:57.901Z,80.00
2019-02-08T07:07:57.810Z,76.00
2019-02-08T07:08:57.790Z,80.00
2019-02-08T07:09:57.776Z,84.00
2019-02-08T07:10:57.755Z,92.00
2019-02-08T07:11:57.733Z,92.00
2019-02-08T07:12:57.740Z,92.00
2019-02-08T07:13:57.697Z,92.00
2019-02-08T07:14:57.671Z,108.00
2019-02-08T07:15:57.659Z,96.00
2019-02-08T07:16:57.667Z,96.00
2019-02-08T07:17:57.646Z,96.00
2019-02-08T07:18:57.595Z,92.00
2019-02-08T07:19:57.608Z,88.00
2019-02-08T07:20:57.560Z,88.00
2019-02-08T07:21:57.535Z,104.00
2019-02-08T07:22:57.563Z,116.00
2019-02-08T07:23:57.576Z,112.00
2019-02-08T07:24:57.487Z,128.00
2019-02-08T07:25:57.470Z,132.00
2019-02-08T07:26:57.443Z,132.00
2019-02-08T07:27:57.432Z,152.00
2019-02-08T07:28:57.604Z,144.00
2019-02-08T07:29:57.438Z,168.00
2019-02-08T07:30:57.378Z,180.00
2019-02-08T07:31:57.359Z,188.00
2019-02-08T07:32:57.336Z,184.00
2019-02-08T07:33:57.320Z,184.00
2019-02-08T07:34:57.285Z,196.00
2019-02-08T07:35:57.287Z,208.00
2019-02-08T07:36:57.255Z,228.00
2019-02-08T07:37:57.254Z,268.00
2019-02-08T07:38:57.227Z,292.00
2019-02-08T07:39:57.199Z,296.00
2019-02-08T07:40:57.206Z,272.00
2019-02-08T07:41:57.168Z,264.00
2019-02-08T07:42:57.148Z,268.00
2019-02-08T07:43:57.118Z,292.00
2019-02-08T07:44:57.101Z,292.00
2019-02-08T07:45:57.144Z,304.00
2019-02-08T07:46:57.067Z,316.00
2019-02-08T07:47:57.048Z,324.00
2019-02-08T07:48:57.018Z,316.00
2019-02-08T07:49:57.016Z,328.00
2019-02-08T07:50:56.987Z,360.00
2019-02-08T07:51:57.000Z,388.00
2019-02-08T07:52:57.226Z,416.00
2019-02-08T07:53:56.945Z,408.00
2019-02-08T07:54:56.915Z,408.00
2019-02-08T07:55:56.943Z,428.00
2019-02-08T07:56:56.883Z,444.00
2019-02-08T07:57:56.990Z,452.00
2019-02-08T07:58:56.849Z,496.00
2019-02-08T07:59:56.827Z,504.00
2019-02-08T08:00:56.809Z,516.00
2019-02-08T08:01:56.778Z,552.00
2019-02-08T08:02:56.768Z,540.00
2019-02-08T08:04:01.475Z,612.00
2019-02-08T08:04:56.813Z,704.00
2019-02-08T08:05:56.706Z,740.00
2019-02-08T08:06:56.685Z,688.00
2019-02-08T08:07:56.679Z,692.00
2019-02-08T08:08:56.663Z,736.00
2019-02-08T08:09:56.632Z,856.00
2019-02-08T08:10:56.640Z,936.00
2019-02-08T08:11:56.598Z,996.00
2019-02-08T08:12:56.569Z,936.00
2019-02-08T08:13:56.582Z,880.00
2019-02-08T08:14:56.570Z,896.00
2019-02-08T08:15:56.532Z,776.00
2019-02-08T08:16:56.505Z,744.00
2019-02-08T08:17:56.485Z,712.00
2019-02-08T08:18:56.456Z,552.00
2019-02-08T08:19:56.474Z,564.00
2019-02-08T08:20:56.482Z,596.00
2019-02-08T08:21:56.418Z,652.00
2019-02-08T08:22:56.378Z,696.00
2019-02-08T08:23:56.369Z,796.00
2019-02-08T08:24:56.341Z,744.00
2019-02-08T08:25:56.333Z,780.00
2019-02-08T08:26:56.313Z,796.00
2019-02-08T08:27:56.301Z,776.00
2019-02-08T08:28:56.515Z,892.00
2019-02-08T08:29:56.268Z,856.00
2019-02-08T08:30:56.238Z,756.00
2019-02-08T08:31:56.250Z,716.00
2019-02-08T08:32:56.203Z,696.00
2019-02-08T08:33:56.188Z,704.00
2019-02-08T08:34:56.167Z,744.00
2019-02-08T08:35:56.149Z,748.00
2019-02-08T08:36:56.191Z,804.00
2019-02-08T08:37:56.111Z,920.00
2019-02-08T08:38:56.096Z,964.00
2019-02-08T08:39:56.078Z,972.00
2019-02-08T08:40:56.039Z,904.00
2019-02-08T08:41:56.031Z,848.00
2019-02-08T08:42:56.050Z,896.00
2019-02-08T08:43:55.994Z,872.00
2019-02-08T08:44:55.966Z,852.00
2019-02-08T08:45:55.948Z,908.00
2019-02-08T08:46:55.979Z,980.00
2019-02-08T08:47:55.947Z,912.00
2019-02-08T08:48:55.893Z,964.00
2019-02-08T08:49:55.876Z,940.00
2019-02-08T08:50:55.871Z,1104.00
2019-02-08T08:51:55.838Z,1148.00
2019-02-08T08:52:55.858Z,1140.00
2019-02-08T08:53:55.813Z,1272.00
2019-02-08T08:54:55.787Z,1196.00
2019-02-08T08:55:55.770Z,1244.00
2019-02-08T08:56:55.743Z,1328.00
2019-02-08T08:57:55.757Z,1364.00
2019-02-08T08:58:55.715Z,1412.00
2019-02-08T08:59:55.696Z,1356.00
2019-02-08T09:00:55.664Z,1688.00
2019-02-08T09:01:55.657Z,2004.00
2019-02-08T09:02:55.645Z,1960.00
2019-02-08T09:03:55.643Z,1932.00
2019-02-08T09:04:55.591Z,2004.00
2019-02-08T09:05:55.586Z,1952.00
2019-02-08T09:06:55.552Z,2084.00
2019-02-08T09:07:55.579Z,1988.00
2019-02-08T09:08:55.542Z,2112.00
2019-02-08T09:09:55.510Z,2232.00
2019-02-08T09:10:55.481Z,2128.00
2019-02-08T09:11:55.475Z,1980.00
2019-02-08T09:12:55.498Z,1848.00
2019-02-08T09:13:55.430Z,1568.00
2019-02-08T09:14:55.406Z,1720.00
2019-02-08T09:15:55.383Z,1604.00
2019-02-08T09:16:55.383Z,1672.00
2019-02-08T09:17:55.362Z,1700.00
2019-02-08T09:18:55.482Z,1596.00
2019-02-08T09:19:55.322Z,1724.00
2019-02-08T09:20:55.309Z,1760.00
2019-02-08T09:21:55.292Z,1876.00
2019-02-08T09:22:55.266Z,1740.00
2019-02-08T09:23:55.239Z,1668.00
2019-02-08T09:24:55.263Z,1724.00
2019-02-08T09:25:55.201Z,1952.00
2019-02-08T09:26:55.196Z,1684.00
2019-02-08T09:27:55.174Z,1332.00
2019-02-08T09:28:55.154Z,1240.00
2019-02-08T09:29:55.142Z,1468.00
2019-02-08T09:30:55.110Z,1872.00
2019-02-08T09:31:55.110Z,2252.00
2019-02-08T09:32:55.086Z,2180.00
2019-02-08T09:33:55.059Z,2280.00
2019-02-08T09:34:55.261Z,2304.00
2019-02-08T09:35:55.035Z,2152.00
2019-02-08T09:36:55.008Z,2032.00
2019-02-08T09:37:54.975Z,1820.00
2019-02-08T09:38:54.965Z,1788.00
2019-02-08T09:39:54.953Z,2152.00
2019-02-08T09:40:54.959Z,2108.00
2019-02-08T09:41:54.905Z,1932.00
2019-02-08T09:42:54.891Z,1852.00
2019-02-08T09:43:54.865Z,2164.00
2019-02-08T09:44:54.880Z,2508.00
2019-02-08T09:45:54.836Z,2432.00
2019-02-08T09:46:54.826Z,2544.00
2019-02-08T09:47:54.826Z,2956.00
2019-02-08T09:48:54.780Z,2700.00
2019-02-08T09:49:54.785Z,2812.00
2019-02-08T09:50:54.735Z,2708.00
2019-02-08T09:51:54.723Z,3084.00
2019-02-08T09:52:54.707Z,2552.00
2019-02-08T09:53:54.693Z,3208.00
2019-02-08T09:54:54.685Z,3244.00
2019-02-08T09:55:57.813Z,2428.00
2019-02-08T09:56:54.634Z,2440.00
2019-02-08T09:57:54.618Z,2760.00
2019-02-08T09:58:54.633Z,3168.00
2019-02-08T09:59:54.577Z,3292.00
2019-02-08T10:00:54.550Z,2724.00
2019-02-08T10:01:54.586Z,2224.00
2019-02-08T10:02:54.530Z,2308.00
2019-02-08T10:03:54.514Z,2444.00
2019-02-08T10:04:54.478Z,2648.00
2019-02-08T10:05:54.456Z,3128.00
2019-02-08T10:06:54.457Z,2808.00
2019-02-08T10:07:54.430Z,3312.00
2019-02-08T10:08:54.548Z,3276.00
2019-02-08T10:09:54.394Z,2752.00
2019-02-08T10:10:54.377Z,2624.00
2019-02-08T10:11:54.351Z,2828.00
2019-02-08T10:12:54.328Z,2896.00
2019-02-08T10:13:54.319Z,2396.00
2019-02-08T10:14:54.916Z,2124.00
2019-02-08T10:15:54.285Z,1936.00
2019-02-08T10:16:54.270Z,2088.00
2019-02-08T10:17:54.238Z,2272.00
2019-02-08T10:18:54.240Z,2112.00
2019-02-08T10:19:54.212Z,2048.00
2019-02-08T10:20:54.249Z,2168.00
2019-02-08T10:21:54.180Z,2208.00
2019-02-08T10:22:54.153Z,2340.00
2019-02-08T10:23:54.176Z,2232.00
2019-02-08T10:24:54.134Z,2184.00
2019-02-08T10:25:54.133Z,2280.00
2019-02-08T10:26:54.091Z,2132.00
2019-02-08T10:27:54.059Z,2320.00
2019-02-08T10:28:54.311Z,2468.00
2019-02-08T10:29:54.018Z,2596.00
2019-02-08T10:30:54.145Z,2476.00
2019-02-08T10:31:53.986Z,2300.00
2019-02-08T10:32:53.977Z,2448.00
2019-02-08T10:33:53.965Z,2784.00
2019-02-08T10:34:53.931Z,2608.00
2019-02-08T10:35:53.926Z,2404.00
2019-02-08T10:36:53.924Z,2440.00
2019-02-08T10:37:53.889Z,2652.00
2019-02-08T10:38:53.862Z,2428.00
2019-02-08T10:39:53.880Z,2476.00
2019-02-08T10:40:53.829Z,2392.00
2019-02-08T10:41:53.818Z,2328.00
2019-02-08T10:42:53.791Z,2344.00
2019-02-08T10:43:53.777Z,2620.00
2019-02-08T10:44:53.756Z,2600.00
2019-02-08T10:45:53.770Z,2864.00
2019-02-08T10:46:53.729Z,2704.00
2019-02-08T10:47:53.701Z,2648.00
2019-02-08T10:48:53.686Z,2436.00
2019-02-08T10:49:53.672Z,2460.00
2019-02-08T10:50:53.793Z,2420.00
2019-02-08T10:51:53.637Z,2464.00
2019-02-08T10:52:53.605Z,2428.00
2019-02-08T10:53:53.601Z,2404.00
2019-02-08T10:54:53.578Z,2656.00
2019-02-08T10:55:53.557Z,3140.00
2019-02-08T10:56:53.538Z,3376.00
2019-02-08T10:57:53.593Z,3388.00
2019-02-08T10:58:53.511Z,3312.00
2019-02-08T10:59:53.487Z,3276.00
2019-02-08T11:00:53.462Z,3480.00
2019-02-08T11:01:53.444Z,3720.00
2019-02-08T11:02:53.433Z,3720.00
2019-02-08T11:03:53.441Z,3624.00
2019-02-08T11:04:53.426Z,3540.00
2019-02-08T11:05:53.385Z,3464.00
2019-02-08T11:06:53.358Z,3844.00
2019-02-08T11:07:53.345Z,3592.00
2019-02-08T11:08:53.360Z,3792.00
2019-02-08T11:09:53.319Z,4276.00
2019-02-08T11:10:53.294Z,4096.00
2019-02-08T11:11:53.274Z,3788.00
2019-02-08T11:12:53.247Z,3440.00
2019-02-08T11:13:53.286Z,3348.00
2019-02-08T11:14:53.226Z,3468.00
2019-02-08T11:15:53.203Z,3860.00
2019-02-08T11:16:53.179Z,3904.00
2019-02-08T11:17:53.159Z,4244.00
2019-02-08T11:18:53.145Z,4008.00
2019-02-08T11:19:53.141Z,4576.00
2019-02-08T11:20:53.136Z,4692.00
2019-02-08T11:21:53.110Z,4748.00
2019-02-08T11:22:53.770Z,4496.00
2019-02-08T11:23:53.052Z,4308.00
2019-02-08T11:24:53.068Z,4240.00
2019-02-08T11:25:53.027Z,4332.00
2019-02-08T11:26:52.998Z,4132.00
2019-02-08T11:27:53.013Z,4032.00
2019-02-08T11:28:53.211Z,3816.00
2019-02-08T11:29:52.955Z,4172.00
2019-02-08T11:30:52.946Z,4308.00
2019-02-08T11:31:52.909Z,3356.00
2019-02-08T11:32:52.937Z,3408.00
2019-02-08T11:33:52.889Z,3652.00
2019-02-08T11:34:52.903Z,3696.00
2019-02-08T11:35:52.853Z,3436.00
2019-02-08T11:36:52.826Z,3684.00
2019-02-08T11:37:52.822Z,4080.00
2019-02-08T11:38:52.811Z,3676.00
2019-02-08T11:39:52.774Z,3780.00
2019-02-08T11:40:52.783Z,4372.00
2019-02-08T11:41:52.747Z,4180.00
2019-02-08T11:42:52.717Z,4176.00
2019-02-08T11:43:52.720Z,4460.00
2019-02-08T11:44:52.688Z,4348.00
2019-02-08T11:45:52.666Z,4532.00
2019-02-08T11:46:52.664Z,4876.00
2019-02-08T11:47:52.633Z,5648.00
2019-02-08T11:48:52.611Z,4476.00
2019-02-08T11:49:52.640Z,4360.00
2019-02-08T11:50:52.610Z,5364.00
2019-02-08T11:51:52.575Z,4724.00
2019-02-08T11:52:52.544Z,4856.00
2019-02-08T11:53:52.523Z,4752.00
2019-02-08T11:54:52.508Z,4424.00
2019-02-08T11:55:52.529Z,4788.00
2019-02-08T11:56:52.476Z,3684.00
2019-02-08T11:57:52.471Z,3404.00
2019-02-08T11:58:52.518Z,3292.00
2019-02-08T11:59:52.489Z,3324.00
2019-02-08T12:00:52.413Z,3932.00
2019-02-08T12:01:52.393Z,4076.00
2019-02-08T12:02:52.369Z,3940.00
2019-02-08T12:03:52.363Z,4408.00
2019-02-08T12:04:52.345Z,5872.00
2019-02-08T12:05:52.364Z,6732.00
2019-02-08T12:06:52.300Z,6272.00
2019-02-08T12:07:52.295Z,5880.00
2019-02-08T12:08:52.267Z,6672.00
2019-02-08T12:09:52.246Z,6636.00
2019-02-08T12:10:52.276Z,5936.00
2019-02-08T12:11:52.219Z,6684.00
2019-02-08T12:12:52.200Z,6844.00
2019-02-08T12:13:52.187Z,7544.00
2019-02-08T12:14:52.208Z,7852.00
2019-02-08T12:15:52.152Z,8468.00
2019-02-08T12:16:52.276Z,7612.00
2019-02-08T12:17:52.118Z,6844.00
2019-02-08T12:18:52.117Z,6200.00
2019-02-08T12:19:52.083Z,6260.00
2019-02-08T12:20:52.065Z,6464.00
2019-02-08T12:21:52.041Z,6016.00
2019-02-08T12:22:52.070Z,5196.00
2019-02-08T12:23:52.015Z,4744.00
2019-02-08T12:24:52.579Z,4472.00
2019-02-08T12:25:51.971Z,4996.00
2019-02-08T12:26:51.966Z,5608.00
2019-02-08T12:27:51.983Z,5472.00
2019-02-08T12:28:52.170Z,5020.00
2019-02-08T12:29:51.901Z,4804.00
2019-02-08T12:30:51.891Z,4856.00
2019-02-08T12:31:51.899Z,4620.00
2019-02-08T12:32:51.886Z,4216.00
2019-02-08T12:33:51.850Z,4280.00
2019-02-08T12:34:51.835Z,4368.00
2019-02-08T12:35:51.803Z,3588.00
2019-02-08T12:36:51.795Z,3528.00
2019-02-08T12:37:51.798Z,3388.00
2019-02-08T12:38:51.761Z,3204.00
2019-02-08T12:39:51.741Z,3140.00
2019-02-08T12:40:51.734Z,3000.00
2019-02-08T12:41:51.699Z,2868.00
2019-02-08T12:42:51.688Z,3044.00
2019-02-08T12:43:51.671Z,3036.00
2019-02-08T12:44:51.663Z,3060.00
2019-02-08T12:45:51.652Z,3344.00
2019-02-08T12:46:51.651Z,3380.00
2019-02-08T12:47:51.609Z,3256.00
2019-02-08T12:48:51.586Z,3160.00
2019-02-08T12:49:51.573Z,3336.00
2019-02-08T12:50:51.574Z,3288.00
2019-02-08T12:51:51.534Z,2912.00
2019-02-08T12:52:51.518Z,3372.00
2019-02-08T12:53:51.544Z,3452.00
2019-02-08T12:54:51.628Z,3448.00
2019-02-08T12:55:51.470Z,3280.00
2019-02-08T12:56:51.453Z,3488.00
2019-02-08T12:57:51.441Z,3692.00
2019-02-08T12:58:51.403Z,3564.00
2019-02-08T12:59:51.435Z,3992.00
2019-02-08T13:00:51.411Z,4040.00
2019-02-08T13:01:51.423Z,3812.00
2019-02-08T13:02:51.344Z,3872.00
2019-02-08T13:03:51.320Z,3888.00
2019-02-08T13:04:51.333Z,4204.00
2019-02-08T13:05:51.295Z,4028.00
2019-02-08T13:06:51.280Z,3768.00
2019-02-08T13:07:51.278Z,3456.00
2019-02-08T13:08:51.252Z,3692.00
2019-02-08T13:09:51.220Z,3592.00
2019-02-08T13:10:51.228Z,3536.00
2019-02-08T13:11:51.198Z,3892.00
2019-02-08T13:12:51.178Z,3628.00
2019-02-08T13:13:51.168Z,3416.00
2019-02-08T13:14:51.139Z,3272.00
2019-02-08T13:15:51.185Z,3468.00
2019-02-08T13:16:51.109Z,3420.00
2019-02-08T13:17:51.089Z,3528.00
2019-02-08T13:18:51.072Z,3424.00
2019-02-08T13:19:51.108Z,3192.00
2019-02-08T13:20:51.038Z,3228.00
2019-02-08T13:21:51.020Z,3364.00
2019-02-08T13:22:50.993Z,3172.00
2019-02-08T13:23:50.997Z,3272.00
2019-02-08T13:24:50.961Z,3504.00
2019-02-08T13:25:50.982Z,3272.00
2019-02-08T13:26:52.909Z,3720.00
2019-02-08T13:27:50.915Z,3260.00
2019-02-08T13:28:50.891Z,2676.00
2019-02-08T13:29:50.869Z,2656.00
2019-02-08T13:30:50.915Z,2536.00